createdAt,value
2016-06-21T00:00:30.137Z,22.14
2016-06-21T00:01:30.791Z,22.15
2016-06-21T00:02:30.197Z,22.06
2016-06-21T00:03:30.216Z,22.06
2016-06-21T00:04:30.880Z,22.07
2016-06-21T00:05:30.271Z,22.02
2016-06-21T00:06:29.678Z,22.04
2016-06-21T00:07:30.330Z,22.02
2016-06-21T00:08:30.987Z,22.02
2016-06-21T00:09:31.004Z,22
2016-06-21T00:10:30.429Z,21.95
2016-06-21T00:11:30.443Z,21.99
2016-06-21T00:12:31.086Z,21.99
2016-06-21T00:13:30.489Z,22
2016-06-21T00:14:30.538Z,22.02
2016-06-21T00:15:30.544Z,21.98
2016-06-21T00:16:31.189Z,21.98
2016-06-21T00:17:31.216Z,21.95
2016-06-21T00:18:30.634Z,21.93
2016-06-21T00:19:30.040Z,21.95
2016-06-21T00:20:30.688Z,21.98
2016-06-21T00:21:30.098Z,21.88
2016-06-21T00:22:30.734Z,21.93
2016-06-21T00:23:30.148Z,21.91
2016-06-21T00:24:30.194Z,21.91
2016-06-21T00:25:30.824Z,21.85
2016-06-21T00:26:30.844Z,21.79
2016-06-21T00:27:30.919Z,21.88
2016-06-21T00:28:31.507Z,21.83
2016-06-21T00:29:31.037Z,21.79
2016-06-21T00:30:30.342Z,21.8
2016-06-21T00:31:31.040Z,21.83
2016-06-21T00:32:31.059Z,21.82
2016-06-21T00:33:31.073Z,21.85
2016-06-21T00:34:31.070Z,21.8
2016-06-21T00:35:30.567Z,21.79
2016-06-21T00:36:31.186Z,21.73
2016-06-21T00:37:31.775Z,21.66
2016-06-21T00:38:31.361Z,21.7
2016-06-21T00:39:31.824Z,21.75
2016-06-21T00:40:31.366Z,21.67
2016-06-21T00:41:31.388Z,21.72
2016-06-21T00:42:31.909Z,21.69
2016-06-21T00:43:31.919Z,21.66
2016-06-21T00:44:31.332Z,21.62
2016-06-21T00:45:31.982Z,21.6
2016-06-21T00:46:32.014Z,21.61
2016-06-21T00:47:32.041Z,21.58
2016-06-21T00:48:32.063Z,21.61
2016-06-21T00:49:32.083Z,21.5
2016-06-21T00:50:31.514Z,21.55
2016-06-21T00:51:32.143Z,21.58
2016-06-21T00:52:30.983Z,21.6
2016-06-21T00:53:32.205Z,21.62
2016-06-21T00:54:32.226Z,21.58
2016-06-21T00:55:31.638Z,21.57
2016-06-21T00:56:31.651Z,21.58
2016-06-21T00:57:32.308Z,21.55
2016-06-21T00:58:32.328Z,21.46
2016-06-21T00:59:31.740Z,21.51
2016-06-21T01:00:31.768Z,21.4
2016-06-21T01:01:31.186Z,21.42
2016-06-21T01:02:31.199Z,21.45
2016-06-21T01:03:31.842Z,21.42
2016-06-21T01:04:31.875Z,21.37
2016-06-21T01:05:31.279Z,21.39
2016-06-21T01:06:31.334Z,21.33
2016-06-21T01:07:32.586Z,21.33
2016-06-21T01:08:31.986Z,21.36
2016-06-21T01:09:32.007Z,21.33
2016-06-21T01:10:32.038Z,21.32
2016-06-21T01:11:32.058Z,21.33
2016-06-21T01:12:31.466Z,21.3
2016-06-21T01:13:32.727Z,21.29
2016-06-21T01:17:40.531Z,21.22
2016-06-21T01:18:21.274Z,21.2
2016-06-21T01:19:20.817Z,21.21
2016-06-21T01:20:21.327Z,21.2
2016-06-21T01:21:21.968Z,21.24
2016-06-21T01:22:21.992Z,21.15
2016-06-21T01:23:22.015Z,21.14
2016-06-21T01:24:22.051Z,21.15
2016-06-21T01:25:22.343Z,21.11
2016-06-21T01:26:20.948Z,21.14
2016-06-21T01:27:21.567Z,21.09
2016-06-21T01:28:22.155Z,21.03
2016-06-21T01:29:21.542Z,21.02
2016-06-21T01:30:21.571Z,21.07
2016-06-21T01:31:22.235Z,21
2016-06-21T01:32:22.250Z,21.02
2016-06-21T01:33:21.047Z,21.02
2016-06-21T01:34:22.313Z,21.02
2016-06-21T01:35:22.324Z,20.9
2016-06-21T01:36:21.733Z,20.97
2016-06-21T01:37:22.374Z,20.93
2016-06-21T01:38:21.806Z,20.97
2016-06-21T01:39:22.432Z,20.93
2016-06-21T01:40:22.460Z,20.92
2016-06-21T01:41:21.880Z,20.84
2016-06-21T01:42:22.511Z,20.9
2016-06-21T01:43:21.932Z,20.84
2016-06-21T01:44:22.563Z,20.92
2016-06-21T01:45:21.967Z,20.93
2016-06-21T01:46:21.986Z,20.8
2016-06-21T01:47:21.407Z,20.87
2016-06-21T01:48:22.669Z,20.8
2016-06-21T01:49:22.073Z,20.8
2016-06-21T01:50:22.725Z,20.8
2016-06-21T01:51:22.747Z,20.75
2016-06-21T01:52:22.784Z,20.78
2016-06-21T01:53:22.799Z,20.72
2016-06-21T01:54:22.834Z,20.72
2016-06-21T01:55:22.235Z,20.72
2016-06-21T01:56:22.266Z,20.74
2016-06-21T01:57:22.911Z,20.7
2016-06-21T01:58:21.685Z,20.72
2016-06-21T01:59:22.358Z,20.62
2016-06-21T02:00:22.363Z,20.62
2016-06-21T02:01:23.007Z,20.65
2016-06-21T02:02:23.034Z,20.65
2016-06-21T02:03:22.435Z,20.63
2016-06-21T02:04:21.861Z,20.58
2016-06-21T02:05:23.114Z,20.59
2016-06-21T02:06:22.522Z,20.51
2016-06-21T02:07:21.945Z,20.52
2016-06-21T02:08:21.949Z,20.59
2016-06-21T02:09:22.625Z,20.52
2016-06-21T02:10:22.675Z,20.51
2016-06-21T02:11:22.650Z,20.44
2016-06-21T02:12:22.058Z,20.41
2016-06-21T02:13:22.690Z,20.44
2016-06-21T02:14:22.836Z,20.48
2016-06-21T02:15:23.486Z,20.48
2016-06-21T02:16:23.492Z,20.43
2016-06-21T02:17:22.899Z,20.5
2016-06-21T02:18:22.830Z,20.47
2016-06-21T02:19:22.242Z,20.43
2016-06-21T02:20:23.535Z,20.39
2016-06-21T02:21:23.632Z,20.41
2016-06-21T02:22:22.323Z,20.32
2016-06-21T02:23:22.972Z,20.34
2016-06-21T02:24:22.989Z,20.28
2016-06-21T02:25:23.020Z,20.32
2016-06-21T02:26:22.420Z,20.44
2016-06-21T02:27:22.438Z,20.37
2016-06-21T02:28:23.714Z,20.4
2016-06-21T02:29:23.119Z,20.31
2016-06-21T02:30:23.234Z,20.31
2016-06-21T02:31:23.254Z,20.28
2016-06-21T02:32:22.626Z,20.26
2016-06-21T02:33:23.289Z,20.28
2016-06-21T02:34:23.290Z,20.25
2016-06-21T02:35:24.026Z,20.32
2016-06-21T02:36:23.411Z,20.31
2016-06-21T02:37:22.786Z,20.28
2016-06-21T02:38:23.413Z,20.21
2016-06-21T02:39:23.986Z,20.31
2016-06-21T02:40:24.015Z,20.26
2016-06-21T02:41:24.056Z,20.16
2016-06-21T02:42:23.451Z,20.14
2016-06-21T02:43:22.868Z,20.13
2016-06-21T02:44:23.505Z,20.18
2016-06-21T02:45:23.616Z,20.21
2016-06-21T02:46:23.547Z,20.11
2016-06-21T02:47:22.967Z,20.14
2016-06-21T02:48:24.401Z,20.11
2016-06-21T02:49:23.675Z,20.1
2016-06-21T02:50:23.809Z,20.19
2016-06-21T02:51:23.078Z,20.11
2016-06-21T02:52:23.783Z,20.11
2016-06-21T02:53:23.828Z,20.13
2016-06-21T02:54:24.472Z,20.16
2016-06-21T02:55:23.162Z,20.09
2016-06-21T02:56:23.833Z,20.11
2016-06-21T02:57:23.835Z,20.11
2016-06-21T02:58:23.870Z,20.06
2016-06-21T02:59:24.508Z,20.14
2016-06-21T03:00:23.934Z,20.07
2016-06-21T03:01:23.324Z,20.09
2016-06-21T03:02:23.977Z,20.02
2016-06-21T03:03:24.009Z,20.04
2016-06-21T03:04:24.014Z,20.1
2016-06-21T03:05:24.747Z,20.04
2016-06-21T03:06:23.463Z,20
2016-06-21T03:07:24.743Z,20.04
2016-06-21T03:08:24.769Z,20.04
2016-06-21T03:09:24.779Z,20.03
2016-06-21T03:10:24.801Z,20.02
2016-06-21T03:11:24.206Z,20.07
2016-06-21T03:12:24.223Z,20
2016-06-21T03:13:24.255Z,20.02
2016-06-21T03:14:24.380Z,20
2016-06-21T03:15:23.678Z,20.03
2016-06-21T03:16:25.001Z,20.02
2016-06-21T03:17:24.403Z,20.02
2016-06-21T03:18:24.433Z,19.99
2016-06-21T03:19:25.197Z,20
2016-06-21T03:20:24.449Z,19.94
2016-06-21T03:21:24.457Z,19.95
2016-06-21T03:22:24.588Z,19.94
2016-06-21T03:23:23.892Z,19.96
2016-06-21T03:24:25.231Z,19.94
2016-06-21T03:25:25.241Z,19.94
2016-06-21T03:26:25.247Z,19.88
2016-06-21T03:27:24.674Z,19.91
2016-06-21T03:28:25.298Z,19.92
2016-06-21T03:29:25.304Z,19.92
2016-06-21T03:30:25.393Z,19.85
2016-06-21T03:31:24.721Z,19.79
2016-06-21T03:32:25.427Z,19.95
2016-06-21T03:33:24.759Z,19.79
2016-06-21T03:34:24.797Z,19.84
2016-06-21T03:35:24.191Z,19.85
2016-06-21T03:36:25.454Z,19.84
2016-06-21T03:37:24.862Z,19.77
2016-06-21T03:38:24.355Z,19.77
2016-06-21T03:39:25.541Z,19.71
2016-06-21T03:40:24.512Z,19.7
2016-06-21T03:41:25.579Z,19.81
2016-06-21T03:42:25.605Z,19.77
2016-06-21T03:43:24.997Z,19.74
2016-06-21T03:44:25.655Z,19.79
2016-06-21T03:45:25.163Z,19.69
2016-06-21T03:46:25.172Z,19.79
2016-06-21T03:47:25.185Z,19.71
2016-06-21T03:48:25.136Z,19.76
2016-06-21T03:49:25.345Z,19.71
2016-06-21T03:50:25.339Z,19.74
2016-06-21T03:51:25.346Z,19.7
2016-06-21T03:52:25.353Z,19.73
2016-06-21T03:53:25.265Z,19.73
2016-06-21T03:54:25.311Z,19.66
2016-06-21T03:55:25.940Z,19.71
2016-06-21T03:56:24.779Z,19.79
2016-06-21T03:57:25.384Z,19.74
2016-06-21T03:58:25.438Z,19.67
2016-06-21T03:59:25.424Z,19.69
2016-06-21T04:00:26.066Z,19.74
2016-06-21T04:01:26.091Z,19.74
2016-06-21T04:02:26.133Z,19.73
2016-06-21T04:03:25.510Z,19.73
2016-06-21T04:04:25.543Z,19.71
2016-06-21T04:05:26.182Z,19.69
2016-06-21T04:06:25.606Z,19.73
2016-06-21T04:07:25.619Z,19.76
2016-06-21T04:08:25.635Z,19.71
2016-06-21T04:09:25.669Z,19.71
2016-06-21T04:10:25.091Z,19.62
2016-06-21T04:11:25.710Z,19.63
2016-06-21T04:12:25.130Z,19.64
2016-06-21T04:13:26.391Z,19.58
2016-06-21T04:14:26.426Z,19.62
2016-06-21T04:15:26.427Z,19.63
2016-06-21T04:16:25.827Z,19.62
2016-06-21T04:17:25.860Z,19.67
2016-06-21T04:18:26.514Z,19.63
2016-06-21T04:19:26.523Z,19.66
2016-06-21T04:20:25.949Z,19.62
2016-06-21T04:21:25.961Z,19.66
2016-06-21T04:22:26.014Z,19.58
2016-06-21T04:23:26.025Z,19.58
2016-06-21T04:24:26.654Z,19.67
2016-06-21T04:25:25.442Z,19.63
2016-06-21T04:26:26.705Z,19.69
2016-06-21T04:27:26.108Z,19.63
2016-06-21T04:28:26.136Z,19.59
2016-06-21T04:29:25.571Z,19.66
2016-06-21T04:30:25.560Z,19.59
2016-06-21T04:31:26.249Z,19.62
2016-06-21T04:32:26.264Z,19.63
2016-06-21T04:33:26.263Z,19.59
2016-06-21T04:34:26.302Z,19.59
2016-06-21T04:35:25.721Z,19.66
2016-06-21T04:36:25.730Z,19.66
2016-06-21T04:37:25.746Z,19.63
2016-06-21T04:38:25.779Z,19.67
2016-06-21T04:39:26.403Z,19.63
2016-06-21T04:40:27.177Z,19.59
2016-06-21T04:41:27.172Z,19.55
2016-06-21T04:42:27.199Z,19.54
2016-06-21T04:43:25.908Z,19.59
2016-06-21T04:44:26.555Z,19.67
2016-06-21T04:45:26.655Z,19.73
2016-06-21T04:46:26.671Z,19.67
2016-06-21T04:47:26.614Z,19.58
2016-06-21T04:48:26.633Z,19.73
2016-06-21T04:49:26.650Z,19.62
2016-06-21T04:50:26.707Z,19.64
2016-06-21T04:51:27.434Z,19.67
2016-06-21T04:52:26.835Z,19.62
2016-06-21T04:53:26.822Z,19.69
2016-06-21T04:54:26.181Z,19.69
2016-06-21T04:55:27.501Z,19.71
2016-06-21T04:56:26.832Z,19.73
2016-06-21T04:57:27.472Z,19.69
2016-06-21T04:58:26.891Z,19.73
2016-06-21T04:59:27.546Z,19.71
2016-06-21T05:00:27.552Z,19.7
2016-06-21T05:01:27.570Z,19.79
2016-06-21T05:02:27.691Z,19.71
2016-06-21T05:03:26.451Z,19.73
2016-06-21T05:04:27.085Z,19.79
2016-06-21T05:05:27.731Z,19.7
2016-06-21T05:06:27.128Z,19.79
2016-06-21T05:07:26.571Z,19.77
2016-06-21T05:08:27.228Z,19.7
2016-06-21T05:09:27.219Z,19.81
2016-06-21T05:10:27.375Z,19.7
2016-06-21T05:11:26.758Z,19.82
2016-06-21T05:12:27.998Z,19.88
2016-06-21T05:13:27.964Z,19.89
2016-06-21T05:14:26.767Z,19.85
2016-06-21T05:15:27.412Z,19.85
2016-06-21T05:16:26.758Z,19.88
2016-06-21T05:17:27.362Z,19.94
2016-06-21T05:18:26.777Z,19.84
2016-06-21T05:19:28.125Z,19.94
2016-06-21T05:20:28.029Z,19.94
2016-06-21T05:21:28.077Z,20
2016-06-21T05:22:28.226Z,19.95
2016-06-21T05:23:27.495Z,19.95
2016-06-21T05:24:26.906Z,19.94
2016-06-21T05:25:28.185Z,20.02
2016-06-21T05:26:27.580Z,20
2016-06-21T05:27:27.599Z,20.09
2016-06-21T05:28:27.660Z,20.03
2016-06-21T05:29:27.703Z,20.02
2016-06-21T05:30:28.299Z,20.06
2016-06-21T05:31:27.731Z,20.07
2016-06-21T05:32:27.753Z,20.03
2016-06-21T05:33:28.045Z,20.09
2016-06-21T05:34:27.784Z,20.11
2016-06-21T05:35:27.813Z,20.19
2016-06-21T05:36:28.449Z,20.18
2016-06-21T05:37:27.256Z,20.13
2016-06-21T05:38:27.263Z,20.1
2016-06-21T05:39:27.908Z,20.16
2016-06-21T05:40:27.363Z,20.14
2016-06-21T05:41:27.975Z,20.29
2016-06-21T05:42:28.622Z,20.28
2016-06-21T05:43:28.015Z,20.24
2016-06-21T05:44:27.431Z,20.26
2016-06-21T05:45:28.665Z,20.29
2016-06-21T05:46:28.067Z,20.25
2016-06-21T05:47:28.755Z,20.29
2016-06-21T05:48:28.130Z,20.26
2016-06-21T05:49:28.155Z,20.4
2016-06-21T05:50:27.561Z,20.31
2016-06-21T05:51:28.207Z,20.26
2016-06-21T05:52:28.248Z,20.39
2016-06-21T05:53:28.256Z,20.32
2016-06-21T05:54:28.289Z,20.43
2016-06-21T05:55:29.034Z,20.41
2016-06-21T05:56:27.716Z,20.43
2016-06-21T05:57:28.440Z,20.5
2016-06-21T05:58:28.383Z,20.5
2016-06-21T05:59:27.776Z,20.44
2016-06-21T06:00:28.453Z,20.51
2016-06-21T06:01:28.471Z,20.51
2016-06-21T06:02:28.480Z,20.58
2016-06-21T06:03:28.615Z,20.56
2016-06-21T06:04:27.916Z,20.62
2016-06-21T06:05:28.658Z,20.63
2016-06-21T06:06:28.575Z,20.7
2016-06-21T06:07:27.983Z,20.74
2016-06-21T06:08:28.774Z,20.72
2016-06-21T06:09:29.330Z,20.72
2016-06-21T06:10:28.715Z,20.78
2016-06-21T06:11:29.358Z,20.78
2016-06-21T06:12:29.359Z,20.77
2016-06-21T06:13:28.143Z,20.78
2016-06-21T06:14:28.786Z,20.72
2016-06-21T06:15:29.423Z,20.74
2016-06-21T06:16:28.836Z,20.78
2016-06-21T06:17:28.389Z,20.75
2016-06-21T06:18:29.594Z,20.8
2016-06-21T06:19:29.595Z,20.81
2016-06-21T06:20:29.003Z,20.75
2016-06-21T06:21:29.771Z,20.87
2016-06-21T06:22:29.149Z,20.8
2016-06-21T06:23:29.161Z,20.85
2016-06-21T06:24:29.163Z,20.85
2016-06-21T06:25:29.802Z,20.87
2016-06-21T06:26:29.182Z,20.87
2016-06-21T06:27:29.191Z,20.88
2016-06-21T06:28:29.202Z,20.92
2016-06-21T06:29:29.965Z,20.95
2016-06-21T06:30:29.975Z,20.95
2016-06-21T06:31:29.364Z,20.96
2016-06-21T06:32:28.719Z,21
2016-06-21T06:33:29.343Z,20.97
2016-06-21T06:34:29.361Z,21.05
2016-06-21T06:35:29.392Z,21.03
2016-06-21T06:36:28.769Z,21.11
2016-06-21T06:37:29.402Z,21.09
2016-06-21T06:38:30.028Z,21.14
2016-06-21T06:39:30.047Z,21.18
2016-06-21T06:40:29.450Z,21.18
2016-06-21T06:41:29.476Z,21.24
2016-06-21T06:42:30.119Z,21.2
2016-06-21T06:43:30.137Z,21.27
2016-06-21T06:44:29.560Z,21.25
2016-06-21T06:45:30.181Z,21.21
2016-06-21T06:46:29.588Z,21.24
2016-06-21T06:47:29.624Z,21.25
2016-06-21T06:48:29.030Z,21.25
2016-06-21T06:49:29.679Z,21.27
2016-06-21T06:50:30.318Z,21.24
2016-06-21T06:51:30.344Z,21.27
2016-06-21T06:52:29.125Z,21.27
2016-06-21T06:53:29.777Z,21.27
2016-06-21T06:54:29.179Z,21.29
2016-06-21T06:55:29.825Z,21.22
2016-06-21T06:56:29.865Z,21.32
2016-06-21T06:57:29.882Z,21.25
2016-06-21T06:58:29.283Z,21.32
2016-06-21T06:59:30.542Z,21.25
2016-06-21T07:00:29.951Z,21.27
2016-06-21T07:01:29.974Z,21.29
2016-06-21T07:02:30.623Z,21.42
2016-06-21T07:03:29.418Z,21.33
2016-06-21T07:04:30.071Z,21.4
2016-06-21T07:05:30.089Z,21.43
2016-06-21T07:06:30.106Z,21.37
2016-06-21T07:07:30.146Z,21.37
2016-06-21T07:08:30.784Z,21.33
2016-06-21T07:09:30.798Z,21.43
2016-06-21T07:10:30.212Z,21.42
2016-06-21T07:11:29.626Z,21.43
2016-06-21T07:12:30.254Z,21.43
2016-06-21T07:13:29.677Z,21.48
2016-06-21T07:14:30.950Z,21.45
2016-06-21T07:15:30.959Z,21.37
2016-06-21T07:16:30.979Z,21.42
2016-06-21T07:17:31.021Z,21.39
2016-06-21T07:18:31.042Z,21.45
2016-06-21T07:19:31.059Z,21.46
2016-06-21T07:20:31.098Z,21.43
2016-06-21T07:21:31.110Z,21.6
2016-06-21T07:22:31.155Z,21.58
2016-06-21T07:23:31.165Z,21.61
2016-06-21T07:24:31.193Z,21.52
2016-06-21T07:25:29.976Z,21.58
2016-06-21T07:26:31.257Z,21.62
2016-06-21T07:27:31.278Z,21.62
2016-06-21T07:28:31.304Z,21.67
2016-06-21T07:29:30.087Z,21.58
2016-06-21T07:30:30.735Z,21.64
2016-06-21T07:31:31.406Z,21.7
2016-06-21T07:32:30.794Z,21.67
2016-06-21T07:33:30.817Z,21.69
2016-06-21T07:34:30.837Z,21.73
2016-06-21T07:35:30.872Z,21.67
2016-06-21T07:36:30.897Z,21.67
2016-06-21T07:37:30.923Z,21.82
2016-06-21T07:38:30.336Z,21.75
2016-06-21T07:39:30.983Z,21.8
2016-06-21T07:40:31.047Z,21.83
2016-06-21T07:41:30.410Z,21.88
2016-06-21T07:42:31.052Z,21.8
2016-06-21T07:43:31.092Z,21.92
2016-06-21T07:44:30.485Z,21.92
2016-06-21T07:45:31.126Z,22.02
2016-06-21T07:46:31.159Z,21.95
2016-06-21T07:47:30.558Z,22.02
2016-06-21T07:48:31.832Z,22.04
2016-06-21T07:49:31.234Z,22.02
2016-06-21T07:50:31.894Z,22.15
2016-06-21T07:51:30.655Z,22.2
2016-06-21T07:52:31.932Z,22.17
2016-06-21T07:53:31.946Z,22.18
2016-06-21T07:54:31.367Z,22.23
2016-06-21T07:55:32.007Z,22.26
2016-06-21T07:56:30.793Z,22.26
2016-06-21T07:57:31.438Z,22.33
2016-06-21T07:58:30.837Z,22.29
2016-06-21T07:59:30.863Z,22.3
2016-06-21T08:00:30.896Z,22.36
2016-06-21T08:01:31.536Z,22.51
2016-06-21T08:02:31.567Z,22.38
2016-06-21T08:03:31.594Z,22.59
2016-06-21T08:04:32.249Z,22.45
2016-06-21T08:05:31.653Z,22.47
2016-06-21T08:06:32.279Z,22.63
2016-06-21T08:07:31.702Z,22.51
2016-06-21T08:08:31.126Z,22.63
2016-06-21T08:09:31.162Z,22.54
2016-06-21T08:10:31.782Z,22.54
2016-06-21T08:11:31.820Z,22.63
2016-06-21T08:12:32.451Z,22.6
2016-06-21T08:13:31.868Z,22.68
2016-06-21T08:14:31.263Z,22.6
2016-06-21T08:15:32.518Z,22.66
2016-06-21T08:16:31.940Z,22.69
2016-06-21T08:17:32.588Z,22.73
2016-06-21T08:18:31.982Z,22.63
2016-06-21T08:19:32.019Z,22.69
2016-06-21T08:20:32.048Z,22.76
2016-06-21T08:21:32.682Z,22.8
2016-06-21T08:22:32.720Z,22.85
2016-06-21T08:23:32.123Z,22.8
2016-06-21T08:24:32.158Z,22.87
2016-06-21T08:25:32.174Z,22.84
2016-06-21T08:26:32.206Z,22.83
2016-06-21T08:27:32.232Z,22.85
2016-06-21T08:28:32.886Z,22.88
2016-06-21T08:29:32.942Z,22.85
2016-06-21T08:30:32.938Z,22.87
2016-06-21T08:31:32.356Z,22.9
2016-06-21T08:32:31.759Z,22.94
2016-06-21T08:33:32.389Z,22.99
2016-06-21T08:34:33.042Z,23
2016-06-21T08:35:31.837Z,23.02
2016-06-21T08:36:32.482Z,23.08
2016-06-21T08:37:33.139Z,23.17
2016-06-21T08:38:31.917Z,23.09
2016-06-21T08:39:31.942Z,23.13
2016-06-21T08:40:32.584Z,23.1
2016-06-21T08:41:33.230Z,23.17
2016-06-21T08:42:32.026Z,23.18
2016-06-21T08:43:32.683Z,23.31
2016-06-21T08:44:32.697Z,23.21
2016-06-21T08:45:32.722Z,23.37
2016-06-21T08:46:33.371Z,23.37
2016-06-21T08:47:32.786Z,23.32
2016-06-21T08:48:32.796Z,23.32
2016-06-21T08:49:32.207Z,23.48
2016-06-21T08:50:33.479Z,23.48
2016-06-21T08:51:32.876Z,23.55
2016-06-21T08:52:32.303Z,23.55
2016-06-21T08:53:33.551Z,23.61
2016-06-21T08:54:32.968Z,23.65
2016-06-21T08:55:32.998Z,23.73
2016-06-21T08:56:32.405Z,23.73
2016-06-21T08:57:33.060Z,23.73
2016-06-21T08:58:33.072Z,23.66
2016-06-21T08:59:33.103Z,23.77
2016-06-21T09:00:33.396Z,23.77
2016-06-21T09:01:33.164Z,23.8
2016-06-21T09:02:33.195Z,23.74
2016-06-21T09:03:33.205Z,23.76
2016-06-21T09:04:33.934Z,23.77
2016-06-21T09:05:33.943Z,23.81
2016-06-21T09:06:33.939Z,23.83
2016-06-21T09:07:33.334Z,23.8
2016-06-21T09:08:33.368Z,23.91
2016-06-21T09:09:33.383Z,23.91
2016-06-21T09:10:34.133Z,23.93
2016-06-21T09:11:33.437Z,23.99
2016-06-21T09:12:33.463Z,24.1
2016-06-21T09:13:33.490Z,24.18
2016-06-21T09:14:33.510Z,24.2
2016-06-21T09:15:33.537Z,24.28
2016-06-21T09:16:33.572Z,24.4
2016-06-21T09:17:33.595Z,24.43
2016-06-21T09:18:33.006Z,24.47
2016-06-21T09:19:34.304Z,24.4
2016-06-21T09:20:33.695Z,24.47
2016-06-21T09:21:33.709Z,24.42
2016-06-21T09:22:33.848Z,24.55
2016-06-21T09:23:33.875Z,24.54
2016-06-21T09:24:33.174Z,24.57
2016-06-21T09:25:33.207Z,24.54
2016-06-21T09:26:34.473Z,24.54
2016-06-21T09:27:34.491Z,24.61
2016-06-21T09:28:33.298Z,24.54
2016-06-21T09:29:34.554Z,24.61
2016-06-21T09:30:33.364Z,24.61
2016-06-21T09:31:33.380Z,24.69
2016-06-21T09:32:34.635Z,24.69
2016-06-21T09:33:34.660Z,24.68
2016-06-21T09:34:34.694Z,24.76
2016-06-21T09:35:33.499Z,24.78
2016-06-21T09:36:34.229Z,24.69
2016-06-21T09:37:34.798Z,24.73
2016-06-21T09:38:33.574Z,24.77
2016-06-21T09:39:34.839Z,24.76
2016-06-21T09:40:34.876Z,24.74
2016-06-21T09:41:34.275Z,24.84
2016-06-21T09:42:34.294Z,24.88
2016-06-21T09:43:33.712Z,24.84
2016-06-21T09:44:34.379Z,24.89
2016-06-21T09:45:33.874Z,24.84
2016-06-21T09:46:35.032Z,24.96
2016-06-21T09:47:34.449Z,24.92
2016-06-21T09:48:35.092Z,24.99
2016-06-21T09:49:34.510Z,25.03
2016-06-21T09:50:34.539Z,25.11
2016-06-21T09:51:34.558Z,25.07
2016-06-21T09:52:35.202Z,25.16
2016-06-21T09:53:34.015Z,25.1
2016-06-21T09:54:35.267Z,25.16
2016-06-21T09:55:34.143Z,25.23
2016-06-21T09:56:35.314Z,25.25
2016-06-21T09:57:34.183Z,25.23
2016-06-21T09:58:34.191Z,25.26
2016-06-21T09:59:35.414Z,25.23
2016-06-21T10:00:34.822Z,25.29
2016-06-21T10:01:34.219Z,25.29
2016-06-21T10:02:34.859Z,25.35
2016-06-21T10:03:34.896Z,25.43
2016-06-21T10:04:35.550Z,25.46
2016-06-21T10:05:35.583Z,25.46
2016-06-21T10:06:34.999Z,25.53
2016-06-21T10:07:35.034Z,25.58
2016-06-21T10:08:35.678Z,25.59
2016-06-21T10:09:35.697Z,25.58
2016-06-21T10:10:35.738Z,25.58
2016-06-21T10:11:35.146Z,25.6
2016-06-21T10:12:35.160Z,25.59
2016-06-21T10:13:34.563Z,25.63
2016-06-21T10:14:35.836Z,25.69
2016-06-21T10:15:35.207Z,25.7
2016-06-21T10:16:35.887Z,25.68
2016-06-21T10:17:35.404Z,25.81
2016-06-21T10:18:34.818Z,25.8
2016-06-21T10:19:34.744Z,25.81
2016-06-21T10:20:35.406Z,25.87
2016-06-21T10:21:35.428Z,25.88
2016-06-21T10:22:34.835Z,25.98
2016-06-21T10:23:36.214Z,25.98
2016-06-21T10:24:36.122Z,26.1
2016-06-21T10:25:36.155Z,26.16
2016-06-21T10:26:35.578Z,26.21
2016-06-21T10:27:36.203Z,26.09
2016-06-21T10:28:35.614Z,26.29
2016-06-21T10:29:35.732Z,26.4
2016-06-21T10:30:35.683Z,26.44
2016-06-21T10:31:35.085Z,26.44
2016-06-21T10:32:35.738Z,26.53
2016-06-21T10:33:35.254Z,26.62
2016-06-21T10:34:35.804Z,26.59
2016-06-21T10:35:35.835Z,26.66
2016-06-21T10:36:35.953Z,26.73
2016-06-21T10:37:35.931Z,26.83
2016-06-21T10:38:35.912Z,26.92
2016-06-21T10:39:35.314Z,27.03
2016-06-21T10:40:36.086Z,27.1
2016-06-21T10:41:36.094Z,27.27
2016-06-21T10:42:35.398Z,27.36
2016-06-21T10:43:36.053Z,27.33
2016-06-21T10:44:36.127Z,27.47
2016-06-21T10:45:36.176Z,27.54
2016-06-21T10:46:36.152Z,27.59
2016-06-21T10:47:36.178Z,27.7
2016-06-21T10:48:36.825Z,27.82
2016-06-21T10:49:36.902Z,27.9
2016-06-21T10:50:36.896Z,27.98
2016-06-21T10:51:36.322Z,28.01
2016-06-21T10:52:35.715Z,28.04
2016-06-21T10:53:36.447Z,28.2
2016-06-21T10:54:36.374Z,28.23
2016-06-21T10:55:35.791Z,28.38
2016-06-21T10:56:37.184Z,28.35
2016-06-21T10:57:36.477Z,28.42
2016-06-21T10:58:35.975Z,28.54
2016-06-21T10:59:35.929Z,28.56
2016-06-21T11:00:37.196Z,28.67
2016-06-21T11:01:36.809Z,28.67
2016-06-21T11:02:37.243Z,28.81
2016-06-21T11:03:37.302Z,28.79
2016-06-21T11:04:37.305Z,28.82
2016-06-21T11:05:36.722Z,28.86
2016-06-21T11:06:36.118Z,28.81
2016-06-21T11:07:36.790Z,28.86
2016-06-21T11:08:36.809Z,28.89
2016-06-21T11:09:36.842Z,28.89
2016-06-21T11:10:36.873Z,28.91
2016-06-21T11:11:36.486Z,28.88
2016-06-21T11:12:37.535Z,28.89
2016-06-21T11:13:36.348Z,28.94
2016-06-21T11:14:37.617Z,28.94
2016-06-21T11:15:37.111Z,28.94
2016-06-21T11:16:37.055Z,28.98
2016-06-21T11:17:37.713Z,28.93
2016-06-21T11:18:36.510Z,28.97
2016-06-21T11:19:37.156Z,29.01
2016-06-21T11:20:37.190Z,29.04
2016-06-21T11:21:37.838Z,29.08
2016-06-21T11:22:37.858Z,29.08
2016-06-21T11:23:36.661Z,29.05
2016-06-21T11:24:37.311Z,29.17
2016-06-21T11:25:37.336Z,29.1
2016-06-21T11:26:37.370Z,29.16
2016-06-21T11:27:38.010Z,29.17
2016-06-21T11:28:37.421Z,29.16
2016-06-21T11:29:37.474Z,29.13
2016-06-21T11:30:36.922Z,29.12
2016-06-21T11:31:36.908Z,29.16
2016-06-21T11:32:38.251Z,29.12
2016-06-21T11:33:37.677Z,29.2
2016-06-21T11:34:38.291Z,29.16
2016-06-21T11:35:37.759Z,29.31
2016-06-21T11:36:38.291Z,29.22
2016-06-21T11:37:37.102Z,29.26
2016-06-21T11:38:37.755Z,29.27
2016-06-21T11:39:37.158Z,29.29
2016-06-21T11:40:37.822Z,29.39
2016-06-21T11:41:38.589Z,29.44
2016-06-21T11:42:38.485Z,29.53
2016-06-21T11:43:37.274Z,29.57
2016-06-21T11:44:37.402Z,29.65
2016-06-21T11:45:37.983Z,29.76
2016-06-21T11:46:38.616Z,29.72
2016-06-21T11:47:38.635Z,29.75
2016-06-21T11:48:38.045Z,29.88
2016-06-21T11:49:38.712Z,29.9
2016-06-21T11:50:38.732Z,29.97
2016-06-21T11:51:38.275Z,30.02
2016-06-21T11:52:37.573Z,30.09
2016-06-21T11:53:38.946Z,30.18
2016-06-21T11:54:38.861Z,30.21
2016-06-21T11:55:38.269Z,30.25
2016-06-21T11:56:38.920Z,30.4
2016-06-21T11:57:39.057Z,30.5
2016-06-21T11:58:38.986Z,30.51
2016-06-21T11:59:39.033Z,30.62
2016-06-21T12:00:38.429Z,30.87
2016-06-21T12:01:38.029Z,30.88
2016-06-21T12:02:38.515Z,31.05
2016-06-21T12:03:39.169Z,31.2
2016-06-21T12:04:38.842Z,31.28
2016-06-21T12:05:38.614Z,31.42
2016-06-21T12:06:38.033Z,31.39
2016-06-21T12:07:38.755Z,31.51
2016-06-21T12:08:38.702Z,31.65
2016-06-21T12:09:38.851Z,31.71
2016-06-21T12:10:38.137Z,31.8
2016-06-21T12:11:39.406Z,31.93
2016-06-21T12:12:38.819Z,31.96
2016-06-21T12:13:38.336Z,32.18
2016-06-21T12:14:38.890Z,32.19
2016-06-21T12:15:38.330Z,32.36
2016-06-21T12:16:39.583Z,32.43
2016-06-21T12:17:39.026Z,32.51
2016-06-21T12:18:39.033Z,32.6
2016-06-21T12:19:39.059Z,32.71
2016-06-21T12:20:39.706Z,32.89
2016-06-21T12:21:39.742Z,32.95
2016-06-21T12:22:39.763Z,33.14
2016-06-21T12:23:39.850Z,33.19
2016-06-21T12:24:39.235Z,33.4
2016-06-21T12:25:39.255Z,33.4
2016-06-21T12:26:39.902Z,33.42
2016-06-21T12:27:39.931Z,33.47
2016-06-21T12:28:38.842Z,33.61
2016-06-21T12:29:40.006Z,33.67
2016-06-21T12:30:40.046Z,33.74
2016-06-21T12:31:39.498Z,33.84
2016-06-21T12:32:39.497Z,33.96
2016-06-21T12:33:39.520Z,34.08
2016-06-21T12:34:39.558Z,34.17
2016-06-21T12:35:38.972Z,34.3
2016-06-21T12:36:40.230Z,34.4
2016-06-21T12:37:39.670Z,34.6
2016-06-21T12:38:39.681Z,34.71
2016-06-21T12:39:40.340Z,34.73
2016-06-21T12:40:40.376Z,34.86
2016-06-21T12:41:39.277Z,34.93
2016-06-21T12:42:39.200Z,34.96
2016-06-21T12:43:40.490Z,34.88
2016-06-21T12:44:39.902Z,34.97
2016-06-21T12:45:39.921Z,35.02
2016-06-21T12:46:40.581Z,34.93
2016-06-21T12:47:40.015Z,34.83
2016-06-21T12:48:40.117Z,34.86
2016-06-21T12:49:40.123Z,35
2016-06-21T12:50:40.098Z,34.99
2016-06-21T12:51:40.755Z,35
2016-06-21T12:52:40.177Z,35.08
2016-06-21T12:53:39.585Z,35.14
2016-06-21T12:54:39.620Z,35.23
2016-06-21T12:55:40.273Z,35.3
2016-06-21T12:56:40.304Z,35.34
2016-06-21T12:57:40.358Z,35.37
2016-06-21T12:58:40.994Z,35.39
2016-06-21T12:59:40.407Z,35.48